Time;durP1;ratioP1;P1;durP2;ratioP2;P2;SDS_P1;SDS_P2;PMS_P1;PMS_P2;Temp;Humidity;BMP_temperature;BMP_pressure;BME280_temperature;BME280_humidity;BME280_pressure;Samples;Min_cycle;Max_cycle;Signal;HPM_P1;HPM_P2
2023/04/18 17:01:06;;;;;;;;;;;;;;;13.14;58.56;98656.19;5030308;23;19974;-63
2023/04/18 17:03:32;;;;;;;;;;;;;;;13.12;58.62;98655.47;4962674;28;20297;-63
2023/04/18 17:05:57;;;;;;;;;;;;;;;13.14;58.34;98664.06;4966518;28;19997;-63
2023/04/18 17:08:24;;;;;;;;;;;;;;;13.11;58.47;98671.34;4961996;28;19926;-64
2023/04/18 17:10:53;;;;;;;;;;;;;;;12.91;59.17;98668.38;4953805;28;20025;-63
2023/04/18 17:13:18;;;;;;;;;;;;;;;12.78;59.14;98663.13;4954794;29;19964;-63
2023/04/18 17:15:43;;;;;;;;;;;;;;;12.72;59.82;98671.44;4954872;29;19957;-63
2023/04/18 17:18:08;;;;;;;;;;;;;;;12.70;59.83;98668.09;4956025;28;19960;-63
2023/04/18 17:20:35;;;;;;;;;;;;;;;12.69;60.15;98671.66;4954633;28;19961;-63
2023/04/18 17:23:00;;;;;;;;;;;;;;;12.66;60.75;98673.66;4953742;29;20319;-64
2023/04/18 17:25:25;;;;;;;;;;;;;;;12.64;60.02;98675.56;4958770;28;19922;-64
2023/04/18 17:27:50;;;;;;;;;;;;;;;12.50;60.52;98676.53;4950372;28;20017;-64
2023/04/18 17:30:15;;;;;;;;;;;;;;;12.46;60.53;98673.25;4957929;28;20018;-64
2023/04/18 17:32:44;;;;;;;;;;;;;;;12.31;61.08;98679.56;4954540;29;20019;-64
2023/04/18 17:35:10;;;;;;;;;;;;;;;12.08;61.76;98684.59;4951255;28;19919;-64
2023/04/18 17:37:35;;;;;;;;;;;;;;;12.11;61.74;98692.28;4959588;28;19949;-63
2023/04/18 17:40:05;;;;;;;;;;;;;;;12.15;61.41;98684.16;4955049;28;19922;-64
2023/04/18 17:42:30;;;;;;;;;;;;;;;12.15;61.47;98686.78;4952319;28;19966;-64
2023/04/18 17:44:55;;;;;;;;;;;;;;;12.15;61.92;98686.78;4933049;29;19918;-64
2023/04/18 17:47:20;;;;;;;;;;;;;;;12.15;61.77;98686.78;4953845;29;19918;-64
2023/04/18 17:49:46;;;;;;;;;;;;;;;12.13;61.66;98704.47;4961284;28;20388;-64
2023/04/18 17:52:11;;;;;;;;;;;;;;;11.95;61.71;98693.41;4956827;29;20327;-64
2023/04/18 17:54:36;;;;;;;;;;;;;;;11.95;62.03;98694.25;4956799;29;20803;-64
2023/04/18 17:57:02;;;;;;;;;;;;;;;11.95;62.08;98702.13;4955416;28;20279;-64
2023/04/18 17:59:27;;;;;;;;;;;;;;;11.82;62.91;98709.09;4956253;29;19923;-64
2023/04/18 18:01:53;;;;;;;;;;;;;;;11.80;62.69;98705.72;4956628;29;19921;-64
2023/04/18 18:04:19;;;;;;;;;;;;;;;11.79;62.50;98717.19;4954344;28;19925;-64
2023/04/18 18:06:52;;;;;;;;;;;;;;;11.73;62.46;98715.78;4950119;28;20403;-64
2023/04/18 18:09:17;;;;;;;;;;;;;;;11.73;62.85;98714.94;4951836;28;20009;-63
2023/04/18 18:11:43;;;;;;;;;;;;;;;11.68;63.13;98720.50;4951614;28;20426;-64
2023/04/18 18:14:08;;;;;;;;;;;;;;;11.59;63.15;98721.94;4953272;28;20028;-64
2023/04/18 18:16:33;;;;;;;;;;;;;;;11.50;63.61;98719.94;4953261;28;19938;-63
2023/04/18 18:18:58;;;;;;;;;;;;;;;11.53;63.40;98724.97;4952383;28;19926;-63
2023/04/18 18:21:24;;;;;;;;;;;;;;;11.54;63.32;98731.91;4953518;29;19919;-64
2023/04/18 18:23:50;;;;;;;;;;;;;;;11.53;64.05;98732.03;4952214;28;20488;-63
2023/04/18 18:26:15;;;;;;;;;;;;;;;11.50;63.81;98729.59;4954197;29;19962;-64
2023/04/18 18:28:40;;;;;;;;;;;;;;;11.46;63.90;98739.47;4952929;28;20005;-64
2023/04/18 18:31:05;;;;;;;;;;;;;;;11.44;63.84;98740.47;4950818;28;19966;-64
2023/04/18 18:33:31;;;;;;;;;;;;;;;11.39;64.51;98739.00;4954546;29;19918;-64
2023/04/18 18:35:56;;;;;;;;;;;;;;;11.40;64.25;98740.69;4952480;28;19918;-63
2023/04/18 18:38:21;;;;;;;;;;;;;;;11.36;64.27;98739.19;4952509;28;19925;-64
2023/04/18 18:40:47;;;;;;;;;;;;;;;11.31;64.34;98743.88;4953257;28;19965;-63
2023/04/18 18:43:12;;;;;;;;;;;;;;;11.30;64.65;98744.81;4950958;28;19922;-63
2023/04/18 18:45:37;;;;;;;;;;;;;;;11.31;64.84;98756.16;4953771;28;19918;-63
2023/04/18 18:48:02;;;;;;;;;;;;;;;11.29;64.69;98752.81;4953004;29;19969;-64
2023/04/18 18:50:28;;;;;;;;;;;;;;;11.27;65.03;98745.00;4951294;28;19950;-63
2023/04/18 18:52:53;;;;;;;;;;;;;;;11.28;65.05;98756.34;4952627;29;20030;-64
2023/04/18 18:55:18;;;;;;;;;;;;;;;11.26;64.94;98763.50;4952659;28;19922;-64
2023/04/18 18:57:43;;;;;;;;;;;;;;;11.20;65.71;98758.63;4953509;28;19922;-63
2023/04/18 19:00:12;;;;;;;;;;;;;;;11.20;64.86;98766.50;4951203;28;19989;-65
2023/04/18 19:02:37;;;;;;;;;;;;;;;11.14;65.17;98760.69;4951334;29;19922;-62
2023/04/18 19:05:02;;;;;;;;;;;;;;;11.07;65.45;98764.63;4953210;29;19945;-64
2023/04/18 19:07:28;;;;;;;;;;;;;;;11.06;65.06;98762.94;4949882;28;19918;-63
2023/04/18 19:09:54;;;;;;;;;;;;;;;10.96;65.67;98772.31;4951110;28;19919;-65
2023/04/18 19:12:19;;;;;;;;;;;;;;;10.96;65.57;98772.31;4948231;28;20343;-64
2023/04/18 19:14:45;;;;;;;;;;;;;;;10.98;66.11;98782.72;4951089;28;20391;-64
2023/04/18 19:17:10;;;;;;;;;;;;;;;10.95;66.28;98786.38;4952590;29;19965;-63
2023/04/18 19:19:36;;;;;;;;;;;;;;;10.86;66.18;98784.31;4951247;28;19954;-63
2023/04/18 19:22:01;;;;;;;;;;;;;;;10.88;66.61;98777.22;4951358;28;19924;-63
2023/04/18 19:24:26;;;;;;;;;;;;;;;10.88;66.74;98782.44;4950355;29;19918;-62
2023/04/18 19:26:51;;;;;;;;;;;;;;;10.89;65.85;98781.50;4952416;28;19919;-62
2023/04/18 19:29:17;;;;;;;;;;;;;;;10.90;66.24;98781.41;4951445;28;20323;-62
2023/04/18 19:31:42;;;;;;;;;;;;;;;10.86;66.13;98771.19;4952252;28;19919;-63
2023/04/18 19:34:07;;;;;;;;;;;;;;;10.89;66.54;98781.50;4950877;28;19926;-63
2023/04/18 19:36:32;;;;;;;;;;;;;;;10.88;66.20;98785.06;4950486;28;19922;-62
2023/04/18 19:38:58;;;;;;;;;;;;;;;10.87;66.71;98791.25;4950265;28;19966;-62
2023/04/18 19:41:23;;;;;;;;;;;;;;;10.82;66.56;98788.06;4952179;29;19946;-62
2023/04/18 19:43:48;;;;;;;;;;;;;;;10.81;66.92;98789.00;4946525;28;19918;-62
2023/04/18 19:46:14;;;;;;;;;;;;;;;10.80;66.95;98784.69;4950055;28;19950;-62
2023/04/18 19:48:39;;;;;;;;;;;;;;;10.79;67.24;98788.25;4950933;29;19934;-64
2023/04/18 19:51:05;;;;;;;;;;;;;;;10.75;67.42;98792.84;4951179;28;19926;-62
2023/04/18 19:53:30;;;;;;;;;;;;;;;10.75;67.60;98790.22;4948314;28;20025;-62
2023/04/18 19:56:02;;;;;;;;;;;;;;;10.79;66.80;98786.47;5086102;27;19977;-61
2023/04/18 19:58:47;;;;;;;;;;;;;;;10.77;67.28;98792.72;5083626;28;20388;-61
2023/04/18 20:01:13;;;;;;;;;;;;;;;10.75;66.81;98792.00;5047503;28;19924;-61
2023/04/18 20:03:38;;;;;;;;;;;;;;;10.68;67.07;98783.66;5042715;28;19928;-61
2023/04/18 20:06:07;;;;;;;;;;;;;;;10.66;67.04;98793.38;5045522;28;19955;-62
2023/04/18 20:08:35;;;;;;;;;;;;;;;10.69;67.13;98795.81;5046009;28;19936;-62
2023/04/18 20:11:01;;;;;;;;;;;;;;;10.67;67.06;98790.69;5049622;28;19953;-61
2023/04/18 20:13:26;;;;;;;;;;;;;;;10.62;67.55;98784.84;5042365;28;19961;-61
2023/04/18 20:15:52;;;;;;;;;;;;;;;10.64;67.72;98788.22;5049683;28;20385;-64
2023/04/18 20:18:17;;;;;;;;;;;;;;;10.64;67.16;98790.84;5046783;28;19923;-63
2023/04/18 20:20:42;;;;;;;;;;;;;;;10.66;67.35;98786.34;5046715;28;19963;-64
2023/04/18 20:23:07;;;;;;;;;;;;;;;10.66;67.44;98790.75;5041345;28;19917;-63
2023/04/18 20:25:33;;;;;;;;;;;;;;;10.72;69.61;98789.56;5044412;28;19952;-63
2023/04/18 20:27:58;;;;;;;;;;;;;;;10.81;70.50;98795.09;5043640;28;19970;-64
2023/04/18 20:30:23;;;;;;;;;;;;;;;10.89;70.32;98795.47;5042647;28;20934;-64
2023/04/18 20:32:48;;;;;;;;;;;;;;;10.94;70.36;98792.56;5044550;28;20400;-65
2023/04/18 20:35:14;;;;;;;;;;;;;;;11.00;70.45;98794.81;5045032;28;20365;-64
2023/04/18 20:37:40;;;;;;;;;;;;;;;11.00;70.56;98794.81;5046241;28;19975;-63
2023/04/18 20:40:09;;;;;;;;;;;;;;;11.03;69.04;98797.25;5062887;28;20008;-63
2023/04/18 20:42:35;;;;;;;;;;;;;;;11.05;68.97;98791.94;5065630;28;19927;-63
2023/04/18 20:45:01;;;;;;;;;;;;;;;11.11;70.70;98781.91;5057380;28;19917;-63
2023/04/18 20:47:26;;;;;;;;;;;;;;;11.15;71.34;98788.63;5058022;28;19916;-63
2023/04/18 20:49:52;;;;;;;;;;;;;;;11.22;69.97;98788.25;5055967;28;19916;-63
2023/04/18 20:52:17;;;;;;;;;;;;;;;11.29;71.02;98784.31;5055987;28;19917;-64
2023/04/18 20:54:42;;;;;;;;;;;;;;;11.28;70.37;98782.63;5066447;28;19920;-63
2023/04/18 20:57:08;;;;;;;;;;;;;;;11.33;69.84;98786.66;5071834;28;20297;-64
2023/04/18 20:59:33;;;;;;;;;;;;;;;11.36;70.83;98786.47;5065343;28;20339;-63
2023/04/18 21:01:58;;;;;;;;;;;;;;;11.36;69.75;98778.59;5062174;28;19917;-63
2023/04/18 21:04:24;;;;;;;;;;;;;;;11.39;70.52;98781.03;5061649;28;19928;-63
2023/04/18 21:06:49;;;;;;;;;;;;;;;11.35;68.08;98786.53;5059368;28;19924;-63
2023/04/18 21:09:14;;;;;;;;;;;;;;;11.31;68.46;98787.69;5055479;28;19921;-64
2023/04/18 21:11:40;;;;;;;;;;;;;;;11.26;69.36;98790.59;5058208;28;19969;-64
2023/04/18 21:14:05;;;;;;;;;;;;;;;11.17;69.77;98786.75;5056881;28;19921;-63
2023/04/18 21:16:30;;;;;;;;;;;;;;;11.14;68.61;98792.19;5040931;28;19948;-64
2023/04/18 21:18:56;;;;;;;;;;;;;;;11.12;69.94;98791.44;5046469;28;19916;-63
2023/04/18 21:21:21;;;;;;;;;;;;;;;11.09;69.28;98794.25;5055002;28;19947;-64
2023/04/18 21:23:46;;;;;;;;;;;;;;;10.99;68.18;98787.88;5056983;28;21499;-63
2023/04/18 21:26:11;;;;;;;;;;;;;;;10.96;68.87;98788.06;5051977;28;19924;-64
2023/04/18 21:28:56;;;;;;;;;;;;;;;10.94;70.04;98789.94;5051060;28;19917;-63
2023/04/18 21:31:21;;;;;;;;;;;;;;;10.95;69.83;98791.63;5032734;28;19923;-64
2023/04/18 21:33:48;;;;;;;;;;;;;;;10.94;69.84;98784.69;5057229;28;19924;-63
2023/04/18 21:36:13;;;;;;;;;;;;;;;10.95;69.44;98791.63;5040862;28;19923;-64
2023/04/18 21:38:38;;;;;;;;;;;;;;;10.93;69.97;98783.00;5062580;28;19916;-63
2023/04/18 21:41:04;;;;;;;;;;;;;;;10.92;70.03;98786.56;5061441;28;19970;-64
2023/04/18 21:43:29;;;;;;;;;;;;;;;10.91;68.98;98784.91;5045410;28;19916;-64
2023/04/18 21:45:54;;;;;;;;;;;;;;;10.92;69.36;98786.56;5063314;28;19916;-64
2023/04/18 21:48:20;;;;;;;;;;;;;;;10.90;69.52;98788.44;5064403;28;19939;-64
2023/04/18 21:50:45;;;;;;;;;;;;;;;10.79;69.96;98780.38;5062916;28;19942;-64
2023/04/18 21:53:10;;;;;;;;;;;;;;;10.79;69.43;98780.38;5056382;28;19920;-64
2023/04/18 21:55:36;;;;;;;;;;;;;;;10.73;69.41;98778.94;5063330;28;19955;-64
2023/04/18 21:58:01;;;;;;;;;;;;;;;10.74;69.31;98778.03;5061374;28;19948;-64
2023/04/18 22:00:26;;;;;;;;;;;;;;;10.73;69.52;98775.50;5055699;28;19972;-64
2023/04/18 22:02:51;;;;;;;;;;;;;;;10.75;69.39;98776.25;5058840;28;19951;-63
2023/04/18 22:05:17;;;;;;;;;;;;;;;10.72;69.68;98781.69;5058880;28;19967;-64
2023/04/18 22:07:42;;;;;;;;;;;;;;;10.70;70.63;98776.50;5050257;28;20282;-63
2023/04/18 22:10:07;;;;;;;;;;;;;;;10.71;70.25;98777.38;5050711;28;19962;-63
2023/04/18 22:12:33;;;;;;;;;;;;;;;10.73;70.50;98775.50;5038102;28;20055;-64
2023/04/18 22:14:58;;;;;;;;;;;;;;;10.74;69.25;98782.44;5050766;28;19928;-64
2023/04/18 22:17:24;;;;;;;;;;;;;;;10.74;69.60;98772.78;5024176;28;20275;-63
2023/04/18 22:19:50;;;;;;;;;;;;;;;10.74;69.70;98764.91;5055372;28;19925;-64
2023/04/18 22:22:15;;;;;;;;;;;;;;;10.72;69.63;98769.41;5042350;28;20369;-64
2023/04/18 22:24:40;;;;;;;;;;;;;;;10.68;68.16;98760.88;5032252;28;19921;-63
2023/04/18 22:27:05;;;;;;;;;;;;;;;10.67;69.93;98763.59;5048977;28;19916;-64
2023/04/18 22:29:31;;;;;;;;;;;;;;;10.68;69.49;98763.50;5050822;28;19923;-64
2023/04/18 22:31:56;;;;;;;;;;;;;;;10.64;69.58;98762.00;5059791;28;19921;-63
2023/04/18 22:34:21;;;;;;;;;;;;;;;10.67;69.34;98768.84;5055853;28;19935;-63
2023/04/18 22:36:46;;;;;;;;;;;;;;;10.66;69.55;98767.13;5062481;28;20422;-64
2023/04/18 22:39:12;;;;;;;;;;;;;;;10.65;69.45;98774.16;5067170;28;20338;-64
2023/04/18 22:41:37;;;;;;;;;;;;;;;10.65;70.13;98768.94;5068664;28;19916;-63
2023/04/18 22:44:03;;;;;;;;;;;;;;;10.62;69.42;98771.72;5049150;28;20021;-64
2023/04/18 22:46:28;;;;;;;;;;;;;;;10.57;69.53;98760.69;5056014;28;19923;-64
2023/04/18 22:48:54;;;;;;;;;;;;;;;10.54;69.75;98768.72;5047194;28;19925;-63
2023/04/18 22:51:19;;;;;;;;;;;;;;;10.54;70.24;98771.34;5051346;28;19923;-65
2023/04/18 22:53:44;;;;;;;;;;;;;;;10.52;68.20;98770.59;5064222;28;19927;-64
2023/04/18 22:56:09;;;;;;;;;;;;;;;10.48;69.08;98771.72;5054113;28;19916;-65
2023/04/18 22:58:35;;;;;;;;;;;;;;;10.51;70.06;98771.53;5062007;28;19923;-64
2023/04/18 23:01:00;;;;;;;;;;;;;;;10.52;70.25;98770.59;5053453;28;19921;-63
2023/04/18 23:03:25;;;;;;;;;;;;;;;10.49;69.77;98765.53;5056589;28;20475;-64
2023/04/18 23:05:51;;;;;;;;;;;;;;;10.49;69.15;98770.75;5055848;28;20385;-64
2023/04/18 23:08:19;;;;;;;;;;;;;;;10.51;69.92;98770.69;5048549;28;19917;-63
2023/04/18 23:10:44;;;;;;;;;;;;;;;10.45;68.82;98772.72;5059005;28;19951;-64
2023/04/18 23:13:11;;;;;;;;;;;;;;;10.45;70.16;98777.13;5052334;28;19924;-63
2023/04/18 23:15:37;;;;;;;;;;;;;;;10.48;70.59;98776.94;5031745;28;20317;-64
2023/04/18 23:18:02;;;;;;;;;;;;;;;10.47;69.58;98770.03;5054556;28;19921;-64
2023/04/18 23:20:27;;;;;;;;;;;;;;;10.39;70.10;98762.63;5053273;28;19923;-63
2023/04/18 23:22:54;;;;;;;;;;;;;;;10.29;68.54;98764.09;5055596;28;20297;-63
2023/04/18 23:25:19;;;;;;;;;;;;;;;10.17;68.87;98760.34;5053415;28;19917;-63
2023/04/18 23:27:44;;;;;;;;;;;;;;;10.18;70.76;98764.66;5053210;28;19951;-64
2023/04/18 23:30:10;;;;;;;;;;;;;;;10.23;70.19;98767.03;5045232;28;19921;-63
2023/04/18 23:32:35;;;;;;;;;;;;;;;10.25;70.29;98759.06;5055194;28;19932;-64
2023/04/18 23:35:02;;;;;;;;;;;;;;;10.25;70.57;98764.31;5053197;28;20392;-64
2023/04/18 23:37:28;;;;;;;;;;;;;;;10.27;69.84;98762.50;5066936;28;19932;-64
2023/04/18 23:39:53;;;;;;;;;;;;;;;10.27;70.32;98762.50;5057517;28;19917;-63
2023/04/18 23:42:18;;;;;;;;;;;;;;;10.26;70.27;98759.03;5051638;28;19916;-63
2023/04/18 23:44:44;;;;;;;;;;;;;;;10.28;69.98;98754.53;5046383;28;20031;-63
2023/04/18 23:47:09;;;;;;;;;;;;;;;10.22;69.67;98757.50;5054641;28;19967;-63
2023/04/18 23:49:34;;;;;;;;;;;;;;;10.19;69.84;98750.66;5052805;28;20378;-63
2023/04/18 23:51:59;;;;;;;;;;;;;;;10.20;69.82;98747.06;5051466;28;19935;-64
2023/04/18 23:54:25;;;;;;;;;;;;;;;10.16;70.60;98750.81;5053147;28;19920;-63
2023/04/18 23:56:50;;;;;;;;;;;;;;;10.15;70.66;98743.03;5050159;28;19948;-64
2023/04/18 23:59:15;;;;;;;;;;;;;;;10.16;70.17;98750.81;5051492;28;19963;-63
